Time;durP1;ratioP1;P1;durP2;ratioP2;P2;SDS_P1;SDS_P2;PMS_P1;PMS_P2;Temp;Humidity;BMP_temperature;BMP_pressure;BME280_temperature;BME280_humidity;BME280_pressure;Samples;Min_cycle;Max_cycle;Signal;HPM_P1;HPM_P2
2023/01/28 00:01:38;;;;;;;0.80;0.80;;;0.90;99.90;;;;;;5054889;28;20044;-73
2023/01/28 00:04:04;;;;;;;0.70;0.70;;;0.90;99.90;;;;;;5072933;28;20024;-74
2023/01/28 00:06:29;;;;;;;0.60;0.60;;;0.90;99.90;;;;;;5059145;28;20027;-73
2023/01/28 00:08:55;;;;;;;0.73;0.73;;;0.90;99.90;;;;;;5063515;28;20387;-73
2023/01/28 00:11:21;;;;;;;0.68;0.68;;;0.90;99.90;;;;;;5066134;28;20509;-74
2023/01/28 00:13:53;;;;;;;0.60;0.60;;;0.90;99.90;;;;;;5059501;28;20063;-73
2023/01/28 00:16:19;;;;;;;0.80;0.80;;;0.90;99.90;;;;;;5056463;28;20064;-73
2023/01/28 00:18:45;;;;;;;0.65;0.65;;;0.90;99.90;;;;;;5061554;28;20081;-73
2023/01/28 00:21:13;;;;;;;1.42;1.42;;;0.90;99.90;;;;;;5071021;28;20033;-73
2023/01/28 00:23:41;;;;;;;0.70;0.70;;;0.90;99.90;;;;;;5061568;28;20047;-72
2023/01/28 00:26:10;;;;;;;0.60;0.60;;;0.90;99.90;;;;;;5067288;28;20020;-73
2023/01/28 00:28:36;;;;;;;0.70;0.70;;;0.80;99.90;;;;;;5061801;28;20028;-72
2023/01/28 00:31:17;;;;;;;0.70;0.70;;;0.80;99.90;;;;;;5055324;28;20028;-73
2023/01/28 00:33:44;;;;;;;0.80;0.80;;;0.80;99.90;;;;;;5059972;28;20108;-74
2023/01/28 00:36:11;;;;;;;1.00;1.00;;;0.80;99.90;;;;;;5057331;28;20021;-74
2023/01/28 00:38:37;;;;;;;0.85;0.85;;;0.70;99.90;;;;;;5059657;28;20108;-73
2023/01/28 00:41:13;;;;;;;1.92;1.88;;;0.80;99.90;;;;;;5065335;28;20126;-73
2023/01/28 00:43:40;;;;;;;0.90;0.90;;;0.80;99.90;;;;;;5063989;28;20025;-73
2023/01/28 00:46:07;;;;;;;0.70;0.70;;;0.80;99.90;;;;;;5052010;28;20537;-73
2023/01/28 00:48:34;;;;;;;0.80;0.80;;;0.80;99.90;;;;;;5051665;28;20021;-75
2023/01/28 00:51:00;;;;;;;3.88;3.63;;;0.80;99.90;;;;;;5058205;28;20382;-74
2023/01/28 00:53:25;;;;;;;1.13;1.10;;;0.80;99.90;;;;;;5071553;28;20024;-75
2023/01/28 00:55:51;;;;;;;0.70;0.70;;;0.80;99.90;;;;;;5070368;28;20029;-75
2023/01/28 00:58:17;;;;;;;1.67;1.60;;;0.80;99.90;;;;;;5056316;28;20021;-75
2023/01/28 01:00:43;;;;;;;1.55;1.48;;;0.80;99.90;;;;;;5058496;28;20116;-75
2023/01/28 01:03:09;;;;;;;0.70;0.70;;;0.80;99.90;;;;;;5056738;28;20098;-74
2023/01/28 01:05:35;;;;;;;0.70;0.70;;;0.80;99.90;;;;;;5059712;28;20029;-74
2023/01/28 01:08:00;;;;;;;0.70;0.70;;;0.80;99.90;;;;;;5064700;28;20051;-75
2023/01/28 01:10:26;;;;;;;1.13;1.13;;;0.80;99.90;;;;;;5059908;28;20039;-75
2023/01/28 01:12:52;;;;;;;1.08;1.08;;;0.80;99.90;;;;;;5058589;28;20478;-75
2023/01/28 01:15:18;;;;;;;2.45;2.35;;;0.80;99.90;;;;;;5062670;28;20505;-74
2023/01/28 01:17:47;;;;;;;1.30;1.30;;;0.70;99.90;;;;;;5051632;28;20017;-74
2023/01/28 01:20:22;;;;;;;0.82;0.82;;;0.80;99.90;;;;;;5058640;28;20078;-75
2023/01/28 01:22:48;;;;;;;0.80;0.80;;;0.70;99.90;;;;;;5055285;28;20025;-74
2023/01/28 01:25:15;;;;;;;0.80;0.80;;;0.70;99.90;;;;;;5051527;28;20104;-74
2023/01/28 01:27:41;;;;;;;1.00;1.00;;;0.70;99.90;;;;;;5054259;28;20052;-75
2023/01/28 01:30:08;;;;;;;0.90;0.90;;;0.70;99.90;;;;;;5060349;28;20422;-74
2023/01/28 01:32:35;;;;;;;0.75;0.75;;;0.70;99.90;;;;;;5066876;28;20486;-74
2023/01/28 01:35:01;;;;;;;2.15;1.45;;;0.70;99.90;;;;;;5061055;28;20414;-75
2023/01/28 01:37:28;;;;;;;0.98;0.98;;;0.70;99.90;;;;;;5051089;28;20052;-75
2023/01/28 01:39:53;;;;;;;0.80;0.80;;;0.70;99.90;;;;;;5061582;28;20020;-76
2023/01/28 01:42:19;;;;;;;0.85;0.85;;;0.70;99.90;;;;;;5067810;28;20074;-76
2023/01/28 01:45:02;;;;;;;1.45;1.45;;;0.70;99.90;;;;;;5060191;28;20040;-76
2023/01/28 01:47:33;;;;;;;0.93;0.93;;;0.70;99.90;;;;;;5056475;28;20036;-76
2023/01/28 01:50:08;;;;;;;0.80;0.80;;;0.70;99.90;;;;;;5057891;28;20457;-75
2023/01/28 01:52:35;;;;;;;1.00;1.00;;;0.70;99.90;;;;;;5071386;28;20020;-75
2023/01/28 01:55:05;;;;;;;0.85;0.85;;;0.70;99.90;;;;;;5069302;28;20029;-75
2023/01/28 01:57:33;;;;;;;1.00;1.00;;;0.70;99.90;;;;;;5059761;28;20032;-73
2023/01/28 02:00:05;;;;;;;1.20;1.20;;;0.70;99.90;;;;;;5058311;28;20018;-73
2023/01/28 02:02:40;;;;;;;0.88;0.88;;;0.70;99.90;;;;;;5071400;28;20093;-73
2023/01/28 02:05:11;;;;;;;1.00;1.00;;;0.70;99.90;;;;;;5056473;28;20489;-74
2023/01/28 02:07:37;;;;;;;1.33;1.33;;;0.80;99.90;;;;;;5056310;28;20597;-72
2023/01/28 02:10:05;;;;;;;0.90;0.90;;;0.80;99.90;;;;;;5051900;28;20025;-72
2023/01/28 02:12:35;;;;;;;0.95;0.95;;;0.70;99.90;;;;;;5052685;28;20036;-73
2023/01/28 02:15:10;;;;;;;0.95;0.95;;;0.70;99.90;;;;;;5064959;28;20031;-72
2023/01/28 02:17:36;;;;;;;;;;;0.70;99.90;;;;;;5065572;28;20677;-72
2023/01/28 02:20:13;;;;;;;0.95;0.95;;;0.70;99.90;;;;;;5059237;28;19905;-70
2023/01/28 02:22:56;;;;;;;0.90;0.90;;;0.70;99.90;;;;;;5061216;28;20439;-70
2023/01/28 02:25:57;;;;;;;1.48;1.38;;;0.70;99.90;;;;;;5062657;28;20025;-70
2023/01/28 02:28:43;;;;;;;2.63;2.45;;;0.60;99.90;;;;;;5042911;28;20021;-72
2023/01/28 02:31:26;;;;;;;0.95;0.95;;;0.70;99.90;;;;;;5067712;28;20031;-70
2023/01/28 02:33:51;;;;;;;1.00;1.00;;;0.60;99.90;;;;;;5054606;28;20029;-72
2023/01/28 02:36:37;;;;;;;1.05;1.05;;;0.70;99.90;;;;;;5067464;28;20027;-72
2023/01/28 02:39:09;;;;;;;1.60;1.60;;;0.70;99.90;;;;;;5053645;28;20068;-70
2023/01/28 02:41:47;;;;;;;0.95;0.95;;;0.70;99.90;;;;;;5054273;28;20017;-70
2023/01/28 02:44:13;;;;;;;9.70;2.85;;;0.70;99.90;;;;;;5092715;22;20033;-69
2023/01/28 02:49:37;;;;;;;1.00;1.00;;;0.70;99.90;;;;;;5062760;28;20028;-71
2023/01/28 02:55:44;;;;;;;2.20;1.65;;;0.70;99.90;;;;;;5054803;28;20082;-71
2023/01/28 02:58:46;;;;;;;0.88;0.88;;;0.70;99.90;;;;;;5067392;28;20078;-71
2023/01/28 03:01:31;;;;;;;0.98;0.98;;;0.60;99.90;;;;;;5072867;28;20419;-71
2023/01/28 03:04:13;;;;;;;1.55;1.50;;;0.70;99.90;;;;;;5053916;28;20017;-70
2023/01/28 03:06:49;;;;;;;1.35;1.35;;;0.70;99.90;;;;;;5063826;28;20099;-71
2023/01/28 03:09:27;;;;;;;0.88;0.88;;;0.60;99.90;;;;;;5064953;28;20108;-70
2023/01/28 03:37:04;;;;;;;2.70;1.55;;;0.60;99.90;;;;;;5073361;28;20042;-71
2023/01/28 03:39:30;;;;;;;0.90;0.90;;;0.60;99.90;;;;;;5073176;28;20111;-72
2023/01/28 03:42:03;;;;;;;0.88;0.88;;;0.60;99.90;;;;;;5072663;28;20430;-72
2023/01/28 03:47:13;;;;;;;2.70;2.50;;;0.60;99.90;;;;;;5068919;28;20028;-72
2023/01/28 03:49:48;;;;;;;1.00;1.00;;;0.60;99.90;;;;;;5053150;28;20474;-70
2023/01/28 03:52:15;;;;;;;1.40;1.30;;;0.60;99.90;;;;;;5066628;28;20122;-72
2023/01/28 03:54:40;;;;;;;1.20;1.20;;;0.60;99.90;;;;;;5052821;28;20025;-70
2023/01/28 03:57:06;;;;;;;1.42;1.42;;;0.60;99.90;;;;;;5051726;28;20025;-70
2023/01/28 03:59:32;;;;;;;1.00;1.00;;;0.60;99.90;;;;;;5064531;28;20386;-70
2023/01/28 04:01:58;;;;;;;0.88;0.88;;;0.60;99.90;;;;;;5067904;28;20096;-70
2023/01/28 04:04:23;;;;;;;1.50;1.50;;;0.70;99.90;;;;;;5062960;28;20505;-72
2023/01/28 04:06:51;;;;;;;1.10;1.10;;;0.70;99.90;;;;;;5063921;28;20159;-70
2023/01/28 04:09:16;;;;;;;1.10;1.10;;;0.70;99.90;;;;;;5052585;28;20057;-71
2023/01/28 04:11:42;;;;;;;1.33;1.33;;;0.70;99.90;;;;;;5052620;28;20106;-71
2023/01/28 04:14:08;;;;;;;1.10;1.10;;;0.70;99.90;;;;;;5052405;28;20466;-72
2023/01/28 04:16:33;;;;;;;1.33;1.33;;;0.70;99.90;;;;;;5052447;28;20036;-70
2023/01/28 04:18:59;;;;;;;1.00;1.00;;;0.70;99.90;;;;;;5052222;28;20025;-72
2023/01/28 04:21:24;;;;;;;2.67;2.55;;;0.70;99.90;;;;;;5052413;28;20029;-70
2023/01/28 04:23:50;;;;;;;1.50;1.42;;;0.70;99.90;;;;;;5063400;28;20031;-70
2023/01/28 04:26:15;;;;;;;1.20;1.20;;;0.70;99.90;;;;;;5067787;28;20025;-70
2023/01/28 04:28:41;;;;;;;1.15;1.15;;;0.70;99.90;;;;;;5052223;28;20021;-71
2023/01/28 04:31:06;;;;;;;2.13;2.03;;;0.70;99.90;;;;;;5052238;28;20075;-70
2023/01/28 04:33:32;;;;;;;1.25;1.25;;;0.70;99.90;;;;;;5063240;28;20481;-71
2023/01/28 04:35:57;;;;;;;1.20;1.20;;;0.70;99.90;;;;;;5071963;28;20474;-70
2023/01/28 04:38:23;;;;;;;1.00;1.00;;;0.70;99.90;;;;;;5070539;28;20024;-73
2023/01/28 04:40:53;;;;;;;1.00;1.00;;;0.70;99.90;;;;;;5054280;28;20021;-71
2023/01/28 04:43:19;;;;;;;1.55;1.55;;;0.70;99.90;;;;;;5052004;28;20024;-71
2023/01/28 04:45:45;;;;;;;2.15;2.05;;;0.70;99.90;;;;;;5051855;28;20032;-69
2023/01/28 04:48:12;;;;;;;0.90;0.90;;;0.70;99.90;;;;;;5051766;28;20020;-70
2023/01/28 04:50:37;;;;;;;1.45;1.45;;;0.70;99.90;;;;;;5052023;28;20021;-72
2023/01/28 04:53:03;;;;;;;10.15;9.00;;;0.70;99.90;;;;;;5063460;28;20039;-72
2023/01/28 04:55:28;;;;;;;1.15;1.15;;;0.70;99.90;;;;;;5053426;28;20025;-72
2023/01/28 04:57:54;;;;;;;1.20;1.20;;;0.70;99.90;;;;;;5063243;28;20028;-72
2023/01/28 05:00:20;;;;;;;1.80;1.80;;;0.70;99.90;;;;;;5071818;28;20378;-72
2023/01/28 05:02:45;;;;;;;1.52;1.48;;;0.80;99.90;;;;;;5070521;28;20031;-72
2023/01/28 05:05:11;;;;;;;1.85;1.75;;;0.80;99.90;;;;;;5070362;28;20032;-71
2023/01/28 05:07:36;;;;;;;1.23;1.23;;;0.80;99.90;;;;;;5056672;28;20041;-71
2023/01/28 05:10:03;;;;;;;1.05;1.05;;;0.70;99.90;;;;;;5051592;28;20108;-71
2023/01/28 05:12:31;;;;;;;1.15;1.15;;;0.80;99.90;;;;;;5063398;28;20080;-70
2023/01/28 05:14:59;;;;;;;1.00;1.00;;;0.80;99.90;;;;;;5071455;28;20363;-71
2023/01/28 05:17:27;;;;;;;1.40;1.40;;;0.70;99.90;;;;;;5059493;28;20025;-71
2023/01/28 05:19:53;;;;;;;0.98;0.98;;;0.70;99.90;;;;;;5070578;28;20024;-71
2023/01/28 05:22:19;;;;;;;1.10;1.10;;;0.70;99.90;;;;;;5059207;28;20167;-71
2023/01/28 05:24:45;;;;;;;1.10;1.10;;;0.70;99.90;;;;;;5063758;28;20170;-71
2023/01/28 05:27:10;;;;;;;1.20;1.20;;;0.70;99.90;;;;;;5051361;28;20100;-71
2023/01/28 05:29:36;;;;;;;1.30;1.30;;;0.60;99.90;;;;;;5051391;28;20032;-72
2023/01/28 05:32:02;;;;;;;1.23;1.23;;;0.60;99.90;;;;;;5051391;28;20486;-72
2023/01/28 05:34:27;;;;;;;1.00;1.00;;;0.60;99.90;;;;;;5068837;28;20029;-71
2023/01/28 05:36:53;;;;;;;1.00;1.00;;;0.60;99.90;;;;;;5071106;28;20025;-71
2023/01/28 05:39:18;;;;;;;1.55;1.55;;;0.60;99.90;;;;;;5071340;28;20082;-72
2023/01/28 05:41:44;;;;;;;1.00;1.00;;;0.60;99.90;;;;;;5071479;28;20501;-72
2023/01/28 05:44:09;;;;;;;1.20;1.20;;;0.60;99.90;;;;;;5052704;28;20179;-73
2023/01/28 05:46:35;;;;;;;1.48;1.38;;;0.60;99.90;;;;;;5063129;28;20029;-71
2023/01/28 05:49:01;;;;;;;1.65;1.55;;;0.60;99.90;;;;;;5065073;28;20028;-72
2023/01/28 05:51:26;;;;;;;1.38;1.38;;;0.60;99.90;;;;;;5062979;28;20470;-72
2023/01/28 05:53:52;;;;;;;0.95;0.95;;;0.60;99.90;;;;;;5072445;28;20374;-71
2023/01/28 05:56:17;;;;;;;0.95;0.95;;;0.60;99.90;;;;;;5063562;28;20025;-71
2023/01/28 05:58:43;;;;;;;0.90;0.90;;;0.60;99.90;;;;;;5054209;28;20025;-70
2023/01/28 06:01:08;;;;;;;1.20;1.10;;;0.60;99.90;;;;;;5081388;28;20450;-71
2023/01/28 06:03:34;;;;;;;0.80;0.80;;;0.60;99.90;;;;;;5063619;28;20020;-72
2023/01/28 06:06:00;;;;;;;1.13;1.00;;;0.60;99.90;;;;;;5063527;28;20024;-72
2023/01/28 06:08:26;;;;;;;0.73;0.73;;;0.50;99.90;;;;;;5056525;28;20111;-71
2023/01/28 06:10:51;;;;;;;1.20;1.20;;;0.50;99.90;;;;;;5066255;28;20029;-71
2023/01/28 06:13:17;;;;;;;0.90;0.90;;;0.50;99.90;;;;;;5069130;28;20054;-71
2023/01/28 06:15:42;;;;;;;0.80;0.80;;;0.50;99.90;;;;;;5065860;28;20047;-72
2023/01/28 06:18:08;;;;;;;0.70;0.70;;;0.60;99.90;;;;;;5070417;28;20415;-72
2023/01/28 06:20:33;;;;;;;0.95;0.95;;;0.60;99.90;;;;;;5065170;28;20021;-72
2023/01/28 06:22:59;;;;;;;0.82;0.82;;;0.50;99.90;;;;;;5068126;28;20075;-72
2023/01/28 06:25:24;;;;;;;0.90;0.90;;;0.50;99.90;;;;;;5065370;28;20040;-71
2023/01/28 06:27:50;;;;;;;3.05;2.95;;;0.60;99.90;;;;;;5074263;28;20025;-72
2023/01/28 06:30:16;;;;;;;0.80;0.80;;;0.50;99.90;;;;;;5074545;28;20107;-72
2023/01/28 06:32:41;;;;;;;1.30;1.20;;;0.50;99.90;;;;;;5070434;28;20029;-71
2023/01/28 06:35:07;;;;;;;0.73;0.73;;;0.50;99.90;;;;;;5065009;28;20029;-71
2023/01/28 06:37:33;;;;;;;0.80;0.80;;;0.60;99.90;;;;;;5060754;28;20024;-72
2023/01/28 06:39:59;;;;;;;3.90;3.70;;;0.50;99.90;;;;;;5074359;28;20482;-72
2023/01/28 06:42:24;;;;;;;0.70;0.70;;;0.50;99.90;;;;;;5073051;28;20116;-71
2023/01/28 06:44:50;;;;;;;0.95;0.95;;;0.50;99.90;;;;;;5063130;28;20047;-71
2023/01/28 06:47:15;;;;;;;1.42;1.20;;;0.60;99.90;;;;;;5066075;28;20108;-71
2023/01/28 06:49:41;;;;;;;3.08;1.75;;;0.60;99.90;;;;;;5065266;28;20107;-72
2023/01/28 06:52:06;;;;;;;0.70;0.70;;;0.60;99.90;;;;;;5060852;28;20016;-71
2023/01/28 06:54:32;;;;;;;0.70;0.70;;;0.60;99.90;;;;;;5074029;28;20032;-72
2023/01/28 06:56:57;;;;;;;0.60;0.60;;;0.50;99.90;;;;;;5060186;28;20020;-73
2023/01/28 06:59:23;;;;;;;0.75;0.75;;;0.50;99.90;;;;;;5072770;28;20074;-71
2023/01/28 07:01:49;;;;;;;0.80;0.80;;;0.60;99.90;;;;;;5059920;28;20114;-71
2023/01/28 07:04:14;;;;;;;1.00;1.00;;;0.50;99.90;;;;;;5063393;28;20071;-71
2023/01/28 07:06:40;;;;;;;0.75;0.75;;;0.60;99.90;;;;;;5052592;28;20056;-71
2023/01/28 07:09:05;;;;;;;0.80;0.80;;;0.50;99.90;;;;;;5063584;28;20103;-71
2023/01/28 07:11:31;;;;;;;2.13;2.03;;;0.60;99.90;;;;;;5057090;28;20025;-71
2023/01/28 07:13:56;;;;;;;0.80;0.80;;;0.60;99.90;;;;;;5053649;28;20376;-71
2023/01/28 07:16:22;;;;;;;1.20;0.80;;;0.60;99.90;;;;;;5053511;28;20495;-71
2023/01/28 07:18:48;;;;;;;0.70;0.70;;;0.70;99.90;;;;;;5061694;28;20047;-71
2023/01/28 07:21:13;;;;;;;0.60;0.60;;;0.70;99.90;;;;;;5070948;28;20020;-71
2023/01/28 07:23:39;;;;;;;0.50;0.50;;;0.60;99.90;;;;;;5062832;28;20099;-71
2023/01/28 07:26:05;;;;;;;0.70;0.70;;;0.70;99.90;;;;;;5073404;28;20391;-71
2023/01/28 07:28:30;;;;;;;0.65;0.65;;;0.70;99.90;;;;;;5064403;28;20448;-72
2023/01/28 07:30:56;;;;;;;0.60;0.60;;;0.80;99.90;;;;;;5070457;28;20054;-70
2023/01/28 07:33:21;;;;;;;0.93;0.93;;;0.70;99.90;;;;;;5069263;28;20046;-70
2023/01/28 07:35:47;;;;;;;0.80;0.80;;;0.70;99.90;;;;;;5069662;28;20071;-72
2023/01/28 07:38:13;;;;;;;1.00;1.00;;;0.60;99.90;;;;;;5069300;28;20488;-71
2023/01/28 07:40:41;;;;;;;0.65;0.65;;;0.60;99.90;;;;;;5072009;28;20036;-72
2023/01/28 07:43:07;;;;;;;0.70;0.70;;;0.80;99.90;;;;;;5063849;28;20028;-72
2023/01/28 07:45:33;;;;;;;0.80;0.80;;;0.70;99.90;;;;;;5055763;28;20036;-72
2023/01/28 07:48:02;;;;;;;0.65;0.65;;;0.70;99.90;;;;;;5062792;28;20028;-72
2023/01/28 07:50:28;;;;;;;0.60;0.60;;;0.80;99.90;;;;;;5065846;28;20029;-71
2023/01/28 07:52:55;;;;;;;0.90;0.90;;;0.80;99.90;;;;;;5061459;28;20509;-71
2023/01/28 07:55:20;;;;;;;0.57;0.57;;;0.80;99.90;;;;;;5069646;28;20029;-72
2023/01/28 07:57:51;;;;;;;0.60;0.60;;;0.80;99.90;;;;;;5060645;28;20103;-72
2023/01/28 08:00:18;;;;;;;2.50;1.15;;;0.80;99.90;;;;;;5072595;28;20024;-71
2023/01/28 08:02:49;;;;;;;0.80;0.80;;;0.80;99.90;;;;;;5060276;28;20087;-73
2023/01/28 08:05:17;;;;;;;0.70;0.70;;;0.80;99.90;;;;;;5068620;28;20591;-71
2023/01/28 08:07:43;;;;;;;1.17;1.08;;;0.80;99.90;;;;;;5063913;28;20367;-71
2023/01/28 08:10:11;;;;;;;0.70;0.70;;;0.80;99.90;;;;;;5059568;28;20382;-71
2023/01/28 08:12:36;;;;;;;0.70;0.70;;;0.80;99.90;;;;;;5060025;28;20383;-70
2023/01/28 08:15:04;;;;;;;0.70;0.70;;;0.70;99.90;;;;;;5064079;28;20024;-71
2023/01/28 08:17:29;;;;;;;0.65;0.65;;;0.70;99.90;;;;;;5063744;28;20059;-71
2023/01/28 08:19:55;;;;;;;1.00;1.00;;;0.80;99.90;;;;;;5057760;28;20075;-71
2023/01/28 08:22:25;;;;;;;0.60;0.60;;;0.80;99.90;;;;;;5060251;28;20078;-71
2023/01/28 08:24:50;;;;;;;1.35;1.25;;;0.70;99.90;;;;;;5065793;28;20017;-71
2023/01/28 08:27:16;;;;;;;1.25;1.15;;;0.70;99.90;;;;;;5055284;28;20099;-71
2023/01/28 08:29:42;;;;;;;0.60;0.60;;;0.70;99.90;;;;;;5058150;28;20047;-71
2023/01/28 08:32:08;;;;;;;0.98;0.98;;;0.70;99.90;;;;;;5059476;28;20112;-72
2023/01/28 08:34:34;;;;;;;0.80;0.70;;;0.60;99.90;;;;;;5050693;28;20082;-72
2023/01/28 08:36:59;;;;;;;0.70;0.70;;;0.70;99.90;;;;;;5064113;28;20032;-71
2023/01/28 08:39:25;;;;;;;0.75;0.75;;;0.70;99.90;;;;;;5066516;28;20024;-70
2023/01/28 08:41:50;;;;;;;0.63;0.63;;;0.70;99.90;;;;;;5052030;28;20041;-71
2023/01/28 08:44:16;;;;;;;0.82;0.82;;;0.70;99.90;;;;;;5070447;22;20067;-78
2023/01/28 08:46:42;;;;;;;0.52;0.52;;;0.70;99.90;;;;;;5031375;28;20035;-77
2023/01/28 08:49:07;;;;;;;0.70;0.70;;;0.70;99.90;;;;;;5030263;28;20089;-77
2023/01/28 08:51:33;;;;;;;0.57;0.57;;;0.70;99.90;;;;;;5031869;28;20029;-77
2023/01/28 08:53:59;;;;;;;0.77;0.77;;;0.70;99.90;;;;;;5031822;28;20036;-77
2023/01/28 08:56:24;;;;;;;1.13;1.05;;;0.70;99.90;;;;;;5031761;28;20041;-77
2023/01/28 08:58:50;;;;;;;1.38;1.10;;;0.70;99.90;;;;;;5029967;28;20487;-77
2023/01/28 09:01:15;;;;;;;0.82;0.82;;;0.80;99.90;;;;;;5033270;28;20048;-77
2023/01/28 09:03:41;;;;;;;0.50;0.50;;;0.70;99.90;;;;;;5033567;28;20026;-77
2023/01/28 09:06:07;;;;;;;0.63;0.63;;;0.70;99.90;;;;;;5031543;28;20038;-75
2023/01/28 09:08:32;;;;;;;0.60;0.60;;;0.70;99.90;;;;;;5031454;28;20033;-76
2023/01/28 09:10:59;;;;;;;0.50;0.50;;;0.80;99.90;;;;;;5030548;28;20025;-75
2023/01/28 09:13:24;;;;;;;0.50;0.50;;;0.80;99.90;;;;;;5029606;28;20113;-75
2023/01/28 09:15:50;;;;;;;1.40;1.02;;;0.80;99.90;;;;;;5031525;28;20102;-75
2023/01/28 09:18:17;;;;;;;0.50;0.50;;;0.80;99.90;;;;;;5030163;28;20452;-75
2023/01/28 09:20:42;;;;;;;0.50;0.50;;;0.80;99.90;;;;;;5031531;28;20040;-75
2023/01/28 09:23:09;;;;;;;1.02;1.02;;;0.80;99.90;;;;;;5042517;28;20018;-75
2023/01/28 09:25:35;;;;;;;0.50;0.50;;;0.80;99.90;;;;;;5029767;28;20029;-75
2023/01/28 09:28:01;;;;;;;0.30;0.30;;;0.80;99.90;;;;;;5031268;28;20026;-75
2023/01/28 09:30:27;;;;;;;0.60;0.60;;;0.80;99.90;;;;;;5035679;28;20025;-77
2023/01/28 09:32:53;;;;;;;0.55;0.55;;;0.90;99.90;;;;;;5036981;28;20364;-77
2023/01/28 09:35:19;;;;;;;0.50;0.50;;;0.90;99.90;;;;;;5035872;28;20026;-77
2023/01/28 09:37:45;;;;;;;0.88;0.88;;;0.90;99.90;;;;;;5041564;28;20024;-76
2023/01/28 09:40:33;;;;;;;0.50;0.50;;;0.80;99.90;;;;;;5044763;28;20022;-77
2023/01/28 09:43:13;;;;;;;0.73;0.73;;;0.90;99.90;;;;;;5037370;28;20025;-78
2023/01/28 09:45:45;;;;;;;0.60;0.60;;;0.90;99.90;;;;;;5037074;28;20034;-78
2023/01/28 09:48:18;;;;;;;0.40;0.40;;;0.90;99.90;;;;;;5046828;28;20075;-77
2023/01/28 09:50:52;;;;;;;0.50;0.50;;;1.00;99.90;;;;;;5039298;28;20025;-77
2023/01/28 09:53:23;;;;;;;0.50;0.50;;;0.80;99.90;;;;;;5042515;28;20036;-76
2023/01/28 09:55:55;;;;;;;0.50;0.50;;;0.90;99.90;;;;;;5036482;28;20026;-75
2023/01/28 09:58:20;;;;;;;0.57;0.57;;;0.90;99.90;;;;;;5035757;28;20028;-75
2023/01/28 10:01:13;;;;;;;0.90;0.90;;;0.80;99.90;;;;;;5037690;28;20116;-74
2023/01/28 10:04:03;;;;;;;0.50;0.50;;;0.90;99.90;;;;;;5049114;28;20389;-76
2023/01/28 10:06:52;;;;;;;0.50;0.50;;;0.90;99.90;;;;;;5044468;28;20080;-77
2023/01/28 10:09:30;;;;;;;1.90;1.80;;;1.00;99.90;;;;;;5042153;28;20037;-77
2023/01/28 10:12:05;;;;;;;0.50;0.50;;;0.80;99.90;;;;;;5030483;28;20025;-76
2023/01/28 10:15:07;;;;;;;0.45;0.45;;;0.80;99.90;;;;;;5038906;28;20032;-74
2023/01/28 10:17:43;;;;;;;0.65;0.65;;;0.80;99.90;;;;;;5036969;28;20025;-74
2023/01/28 10:20:11;;;;;;;0.40;0.40;;;0.80;99.90;;;;;;5034751;28;20033;-75
2023/01/28 10:22:40;;;;;;;0.52;0.52;;;0.80;99.90;;;;;;5044730;28;20404;-75
2023/01/28 10:25:17;;;;;;;0.80;0.80;;;0.80;99.90;;;;;;5048358;28;20052;-75
2023/01/28 10:27:44;;;;;;;0.73;0.70;;;0.80;99.90;;;;;;5049896;28;20025;-74
2023/01/28 10:30:20;;;;;;;0.50;0.50;;;0.90;99.90;;;;;;5043102;28;20035;-74
2023/01/28 10:33:03;;;;;;;0.68;0.68;;;0.90;99.90;;;;;;5035510;28;20032;-74
2023/01/28 10:35:34;;;;;;;0.70;0.70;;;0.90;99.90;;;;;;5034165;28;20030;-74
2023/01/28 10:38:05;;;;;;;0.47;0.47;;;0.90;99.90;;;;;;5035724;28;20029;-75
2023/01/28 10:40:31;;;;;;;0.50;0.50;;;1.00;99.90;;;;;;5047534;28;20050;-74
2023/01/28 10:42:56;;;;;;;0.50;0.50;;;1.10;99.90;;;;;;5034226;28;20109;-74
2023/01/28 10:45:37;;;;;;;0.50;0.50;;;1.20;99.90;;;;;;5035780;28;20033;-74
2023/01/28 10:48:40;;;;;;;0.60;0.60;;;1.30;99.90;;;;;;5041648;28;20033;-75
2023/01/28 10:51:06;;;;;;;0.43;0.43;;;1.30;99.90;;;;;;5023425;28;20025;-74
2023/01/28 10:53:36;;;;;;;0.50;0.50;;;1.30;99.90;;;;;;5047390;28;20032;-74
2023/01/28 10:56:08;;;;;;;0.60;0.60;;;1.20;99.90;;;;;;5043370;28;20025;-74
2023/01/28 10:58:45;;;;;;;0.63;0.55;;;1.30;99.90;;;;;;5043506;28;20086;-74
2023/01/28 11:01:11;;;;;;;0.50;0.50;;;1.30;99.90;;;;;;5033943;28;20120;-74
2023/01/28 11:03:37;;;;;;;0.60;0.60;;;1.20;99.90;;;;;;5033722;28;20217;-75
2023/01/28 11:06:03;;;;;;;0.93;0.93;;;1.10;99.90;;;;;;5033725;28;20478;-75
2023/01/28 11:08:30;;;;;;;0.65;0.65;;;1.00;99.90;;;;;;5032848;28;20107;-75
2023/01/28 11:10:56;;;;;;;0.50;0.50;;;1.00;99.90;;;;;;5033556;28;20031;-75
2023/01/28 11:13:29;;;;;;;1.65;1.00;;;1.00;99.90;;;;;;5033706;28;20026;-75
2023/01/28 11:16:01;;;;;;;0.68;0.68;;;1.00;99.90;;;;;;5033406;28;20030;-74
2023/01/28 11:18:34;;;;;;;0.70;0.70;;;0.90;99.90;;;;;;5033443;28;20029;-75
2023/01/28 11:21:03;;;;;;;0.40;0.40;;;0.90;99.90;;;;;;5033560;28;20021;-75
2023/01/28 11:23:35;;;;;;;1.58;1.05;;;1.10;99.90;;;;;;5041485;28;20044;-74
2023/01/28 11:26:04;;;;;;;0.80;0.80;;;1.00;99.90;;;;;;5037621;28;20117;-75
2023/01/28 11:28:31;;;;;;;0.50;0.50;;;1.10;99.90;;;;;;5032749;28;20120;-75
2023/01/28 11:30:59;;;;;;;0.75;0.75;;;1.10;99.90;;;;;;5034404;28;20583;-75
2023/01/28 11:33:48;;;;;;;0.73;0.70;;;1.00;99.90;;;;;;5033437;28;20060;-75
2023/01/28 11:36:16;;;;;;;0.60;0.60;;;0.90;99.90;;;;;;5020216;28;20041;-75
2023/01/28 11:38:55;;;;;;;0.40;0.40;;;0.80;99.90;;;;;;5033645;28;20029;-76
2023/01/28 11:41:39;;;;;;;0.50;0.50;;;0.80;99.90;;;;;;5039981;28;20033;-75
2023/01/28 11:44:23;;;;;;;0.75;0.75;;;0.90;99.90;;;;;;5038346;28;20076;-76
2023/01/28 11:47:07;;;;;;;0.70;0.70;;;0.80;99.90;;;;;;5035277;28;20030;-75
2023/01/28 11:49:53;;;;;;;0.47;0.47;;;0.90;99.90;;;;;;5033593;28;20427;-75
2023/01/28 11:52:51;;;;;;;1.00;0.68;;;0.80;99.90;;;;;;5032028;28;20372;-75
2023/01/28 11:55:50;;;;;;;3.35;1.00;;;0.80;99.90;;;;;;5032942;28;20026;-75
2023/01/28 11:58:44;;;;;;;1.63;1.45;;;0.80;99.90;;;;;;5032757;28;20017;-75
2023/01/28 12:01:33;;;;;;;0.65;0.65;;;0.70;99.90;;;;;;5029668;28;20541;-75
2023/01/28 12:04:02;;;;;;;0.50;0.50;;;0.70;99.90;;;;;;5026693;28;20024;-74
2023/01/28 12:06:39;;;;;;;0.88;0.88;;;0.70;99.90;;;;;;5037580;28;20032;-73
2023/01/28 12:09:35;;;;;;;0.90;0.90;;;0.60;99.90;;;;;;5032039;28;20022;-74
2023/01/28 12:12:34;;;;;;;3.90;1.42;;;0.50;99.90;;;;;;5037301;28;20036;-74
2023/01/28 12:15:21;;;;;;;0.50;0.50;;;0.40;99.90;;;;;;5038207;28;20021;-74
2023/01/28 12:18:11;;;;;;;0.45;0.45;;;0.30;99.90;;;;;;5029446;28;20025;-74
2023/01/28 12:20:55;;;;;;;0.50;0.47;;;0.50;99.90;;;;;;5040628;28;20558;-73
2023/01/28 12:24:05;;;;;;;0.75;0.75;;;0.40;99.90;;;;;;5020096;28;20033;-74
2023/01/28 12:26:38;;;;;;;2.15;2.05;;;0.30;99.90;;;;;;5019563;28;20152;-74
2023/01/28 12:29:16;;;;;;;0.90;0.90;;;0.20;99.90;;;;;;5030541;28;20052;-74
2023/01/28 12:32:00;;;;;;;3.92;1.95;;;0.30;99.90;;;;;;5032451;28;20483;-74
2023/01/28 12:34:50;;;;;;;0.50;0.50;;;0.40;99.90;;;;;;5030904;28;20406;-74
2023/01/28 12:37:22;;;;;;;0.50;0.50;;;0.30;99.90;;;;;;5044999;28;20127;-74
2023/01/28 12:40:18;;;;;;;0.80;0.80;;;0.20;99.90;;;;;;5030840;28;20033;-74
2023/01/28 12:42:50;;;;;;;;;;;0.20;99.90;;;;;;5032551;28;20072;-74
2023/01/28 12:45:25;;;;;;;0.65;0.65;;;0.20;99.90;;;;;;5032988;28;19913;-74
2023/01/28 12:48:01;;;;;;;2.47;2.33;;;0.30;99.90;;;;;;5042092;28;20156;-74
2023/01/28 12:50:35;;;;;;;0.60;0.60;;;0.20;99.90;;;;;;5032056;28;20276;-75
2023/01/28 12:53:19;;;;;;;1.08;0.82;;;0.10;99.90;;;;;;5032021;28;20033;-75
2023/01/28 12:56:14;;;;;;;0.93;0.93;;;0.20;99.90;;;;;;5027532;28;20490;-74
2023/01/28 12:58:47;;;;;;;1.10;1.05;;;0.20;99.90;;;;;;5046250;28;20057;-75
2023/01/28 13:01:18;;;;;;;0.70;0.70;;;0.20;99.90;;;;;;5031987;28;20021;-74
2023/01/28 13:04:07;;;;;;;0.50;0.50;;;0.10;99.90;;;;;;5045395;28;20028;-74
2023/01/28 13:06:41;;;;;;;0.55;0.55;;;0.10;99.90;;;;;;5029330;28;20097;-75
2023/01/28 13:09:17;;;;;;;0.60;0.60;;;0.10;99.90;;;;;;5029576;28;20064;-75
2023/01/28 13:11:45;;;;;;;0.50;0.50;;;0.10;99.90;;;;;;5030492;28;20112;-75
2023/01/28 13:14:12;;;;;;;0.30;0.30;;;0.00;99.90;;;;;;5031577;28;20028;-75
2023/01/28 13:16:37;;;;;;;0.43;0.43;;;-0.10;99.90;;;;;;5030495;28;20049;-75
2023/01/28 13:19:16;;;;;;;0.40;0.40;;;-0.10;99.90;;;;;;5031632;28;20497;-75
2023/01/28 13:21:42;;;;;;;0.50;0.50;;;0.10;99.90;;;;;;5018948;28;20033;-75
2023/01/28 13:24:07;;;;;;;0.40;0.40;;;0.00;99.90;;;;;;5030276;28;20025;-75
2023/01/28 13:26:43;;;;;;;0.55;0.55;;;0.00;99.90;;;;;;5030441;28;20025;-75
2023/01/28 13:29:08;;;;;;;0.60;0.60;;;-0.10;99.90;;;;;;5032655;28;20035;-75
2023/01/28 13:31:39;;;;;;;6.15;5.50;;;0.00;99.90;;;;;;5051579;28;20021;-75
2023/01/28 13:34:07;;;;;;;0.55;0.55;;;0.00;99.90;;;;;;5036340;28;20029;-75
2023/01/28 13:36:45;;;;;;;0.60;0.60;;;0.10;99.90;;;;;;5031805;28;20018;-75
2023/01/28 13:39:18;;;;;;;0.40;0.40;;;0.10;99.90;;;;;;5031348;28;20100;-75
2023/01/28 13:41:52;;;;;;;0.50;0.50;;;0.20;99.90;;;;;;5031666;28;20017;-75
2023/01/28 13:44:24;;;;;;;0.38;0.38;;;0.10;99.90;;;;;;5029938;28;20132;-75
2023/01/28 13:46:51;;;;;;;0.50;0.50;;;0.10;99.90;;;;;;5032061;28;20230;-75
2023/01/28 13:49:29;;;;;;;0.38;0.38;;;-0.10;99.90;;;;;;5018312;28;20072;-75